sensor_id;sensor_type;location;lat;lon;timestamp;temperature;humidity
2653;DHT22;1336;48.692;9.144;2022-11-25T06:00:24;5.50;97.20
2653;DHT22;1336;48.692;9.144;2022-11-25T06:01:16;5.50;97.20
2653;DHT22;1336;48.692;9.144;2022-11-25T06:02:07;5.50;97.20
2653;DHT22;1336;48.692;9.144;2022-11-25T06:02:58;5.50;97.20
2653;DHT22;1336;48.692;9.144;2022-11-25T06:03:49;5.50;97.20
2653;DHT22;1336;48.692;9.144;2022-11-25T06:04:41;5.50;97.20
2653;DHT22;1336;48.692;9.144;2022-11-25T06:05:33;5.50;97.20
2653;DHT22;1336;48.692;9.144;2022-11-25T06:06:25;5.50;97.20
2653;DHT22;1336;48.692;9.144;2022-11-25T06:07:16;5.50;97.20
2653;DHT22;1336;48.692;9.144;2022-11-25T06:08:08;5.40;97.20
2653;DHT22;1336;48.692;9.144;2022-11-25T06:08:59;5.40;97.20
2653;DHT22;1336;48.692;9.144;2022-11-25T06:09:51;5.40;97.20
2653;DHT22;1336;48.692;9.144;2022-11-25T06:10:42;5.40;97.20
2653;DHT22;1336;48.692;9.144;2022-11-25T06:11:34;5.40;97.20
2653;DHT22;1336;48.692;9.144;2022-11-25T06:12:24;5.40;97.20
2653;DHT22;1336;48.692;9.144;2022-11-25T06:13:16;5.40;97.20
2653;DHT22;1336;48.692;9.144;2022-11-25T06:14:07;5.40;97.20
2653;DHT22;1336;48.692;9.144;2022-11-25T06:14:59;5.40;97.20
2653;DHT22;1336;48.692;9.144;2022-11-25T06:15:51;5.40;97.20
2653;DHT22;1336;48.692;9.144;2022-11-25T06:16:43;5.40;97.20
2653;DHT22;1336;48.692;9.144;2022-11-25T06:17:34;5.40;97.20
2653;DHT22;1336;48.692;9.144;2022-11-25T06:18:25;5.40;97.20
2653;DHT22;1336;48.692;9.144;2022-11-25T06:19:16;5.40;97.20
2653;DHT22;1336;48.692;9.144;2022-11-25T06:20:08;5.40;97.20
2653;DHT22;1336;48.692;9.144;2022-11-25T06:20:59;5.40;97.20
2653;DHT22;1336;48.692;9.144;2022-11-25T06:21:51;5.40;97.20
2653;DHT22;1336;48.692;9.144;2022-11-25T06:22:42;5.50;97.20
2653;DHT22;1336;48.692;9.144;2022-11-25T06:23:34;5.50;97.20
2653;DHT22;1336;48.692;9.144;2022-11-25T06:24:25;5.50;97.20
2653;DHT22;1336;48.692;9.144;2022-11-25T06:25:17;5.50;97.20
2653;DHT22;1336;48.692;9.144;2022-11-25T06:26:11;5.50;97.20
2653;DHT22;1336;48.692;9.144;2022-11-25T06:27:03;5.50;97.20
2653;DHT22;1336;48.692;9.144;2022-11-25T06:27:54;5.50;97.20
2653;DHT22;1336;48.692;9.144;2022-11-25T06:28:46;5.50;97.20
2653;DHT22;1336;48.692;9.144;2022-11-25T06:29:37;5.50;97.20
2653;DHT22;1336;48.692;9.144;2022-11-25T06:30:29;5.50;97.20
2653;DHT22;1336;48.692;9.144;2022-11-25T06:31:23;5.60;97.20
2653;DHT22;1336;48.692;9.144;2022-11-25T06:32:15;5.60;97.20
2653;DHT22;1336;48.692;9.144;2022-11-25T06:33:05;5.50;97.20
2653;DHT22;1336;48.692;9.144;2022-11-25T06:33:57;5.50;97.20
2653;DHT22;1336;48.692;9.144;2022-11-25T06:34:48;5.50;97.20
2653;DHT22;1336;48.692;9.144;2022-11-25T06:35:40;5.60;97.20
2653;DHT22;1336;48.692;9.144;2022-11-25T06:36:30;5.50;97.20
2653;DHT22;1336;48.692;9.144;2022-11-25T06:37:22;5.50;97.20
2653;DHT22;1336;48.692;9.144;2022-11-25T06:38:13;5.50;97.20
2653;DHT22;1336;48.692;9.144;2022-11-25T06:39:04;5.50;97.20
2653;DHT22;1336;48.692;9.144;2022-11-25T06:39:55;5.60;97.20
2653;DHT22;1336;48.692;9.144;2022-11-25T06:40:47;5.50;97.20
2653;DHT22;1336;48.692;9.144;2022-11-25T06:41:38;5.50;97.20
2653;DHT22;1336;48.692;9.144;2022-11-25T06:42:29;5.50;97.20
2653;DHT22;1336;48.692;9.144;2022-11-25T06:43:20;5.50;97.20
2653;DHT22;1336;48.692;9.144;2022-11-25T06:44:12;5.60;97.20
2653;DHT22;1336;48.692;9.144;2022-11-25T06:45:03;5.50;97.20
2653;DHT22;1336;48.692;9.144;2022-11-25T06:46:01;5.50;97.20
2653;DHT22;1336;48.692;9.144;2022-11-25T06:46:53;5.50;97.20
2653;DHT22;1336;48.692;9.144;2022-11-25T06:47:45;5.50;97.20
2653;DHT22;1336;48.692;9.144;2022-11-25T06:48:36;5.50;97.20
2653;DHT22;1336;48.692;9.144;2022-11-25T06:49:28;5.50;97.20
2653;DHT22;1336;48.692;9.144;2022-11-25T06:50:18;5.50;97.20
2653;DHT22;1336;48.692;9.144;2022-11-25T06:51:12;5.50;97.20
2653;DHT22;1336;48.692;9.144;2022-11-25T06:52:03;5.50;97.20
2653;DHT22;1336;48.692;9.144;2022-11-25T06:52:55;5.50;97.20
2653;DHT22;1336;48.692;9.144;2022-11-25T06:53:45;5.50;97.20
2653;DHT22;1336;48.692;9.144;2022-11-25T06:54:38;5.50;97.20
2653;DHT22;1336;48.692;9.144;2022-11-25T06:55:30;5.50;97.20
2653;DHT22;1336;48.692;9.144;2022-11-25T06:56:23;5.50;97.20
2653;DHT22;1336;48.692;9.144;2022-11-25T06:57:16;5.50;97.20
2653;DHT22;1336;48.692;9.144;2022-11-25T06:58:08;5.60;97.20
2653;DHT22;1336;48.692;9.144;2022-11-25T06:58:59;5.60;97.20
2653;DHT22;1336;48.692;9.144;2022-11-25T06:59:52;5.60;97.20
2653;DHT22;1336;48.692;9.144;2022-11-25T07:00:43;5.60;97.20
2653;DHT22;1336;48.692;9.144;2022-11-25T07:01:34;5.60;97.20
2653;DHT22;1336;48.692;9.144;2022-11-25T07:02:26;5.60;97.20
2653;DHT22;1336;48.692;9.144;2022-11-25T07:03:18;5.70;97.20
2653;DHT22;1336;48.692;9.144;2022-11-25T07:04:09;5.60;97.20
2653;DHT22;1336;48.692;9.144;2022-11-25T07:05:01;5.70;97.20
2653;DHT22;1336;48.692;9.144;2022-11-25T07:05:54;5.70;97.20
2653;DHT22;1336;48.692;9.144;2022-11-25T07:06:48;5.70;97.20
2653;DHT22;1336;48.692;9.144;2022-11-25T07:07:38;5.70;97.20
2653;DHT22;1336;48.692;9.144;2022-11-25T07:08:30;5.70;97.20
2653;DHT22;1336;48.692;9.144;2022-11-25T07:09:21;5.70;97.20
2653;DHT22;1336;48.692;9.144;2022-11-25T07:10:14;5.80;97.20
2653;DHT22;1336;48.692;9.144;2022-11-25T07:11:07;5.80;97.20
2653;DHT22;1336;48.692;9.144;2022-11-25T07:11:59;5.80;97.20
2653;DHT22;1336;48.692;9.144;2022-11-25T07:12:50;5.80;97.20
2653;DHT22;1336;48.692;9.144;2022-11-25T07:13:42;5.80;97.20
2653;DHT22;1336;48.692;9.144;2022-11-25T07:14:33;5.80;97.20
2653;DHT22;1336;48.692;9.144;2022-11-25T07:15:25;5.90;97.20
2653;DHT22;1336;48.692;9.144;2022-11-25T07:16:15;5.90;97.20
2653;DHT22;1336;48.692;9.144;2022-11-25T07:17:07;5.90;97.20
2653;DHT22;1336;48.692;9.144;2022-11-25T07:17:59;5.90;97.20
2653;DHT22;1336;48.692;9.144;2022-11-25T07:18:51;6.00;97.20
2653;DHT22;1336;48.692;9.144;2022-11-25T07:19:42;6.00;97.20
2653;DHT22;1336;48.692;9.144;2022-11-25T07:20:34;6.00;97.20
2653;DHT22;1336;48.692;9.144;2022-11-25T07:21:25;6.00;97.20
2653;DHT22;1336;48.692;9.144;2022-11-25T07:22:17;6.10;97.20
2653;DHT22;1336;48.692;9.144;2022-11-25T07:23:08;6.10;97.20
2653;DHT22;1336;48.692;9.144;2022-11-25T07:24:01;6.10;97.20
2653;DHT22;1336;48.692;9.144;2022-11-25T07:24:52;6.10;97.20
2653;DHT22;1336;48.692;9.144;2022-11-25T07:25:44;6.20;97.20
2653;DHT22;1336;48.692;9.144;2022-11-25T07:26:36;6.20;97.20
2653;DHT22;1336;48.692;9.144;2022-11-25T07:27:28;6.20;97.20
2653;DHT22;1336;48.692;9.144;2022-11-25T07:28:19;6.20;97.20
2653;DHT22;1336;48.692;9.144;2022-11-25T07:29:12;6.30;97.20
2653;DHT22;1336;48.692;9.144;2022-11-25T07:30:05;6.30;97.20
2653;DHT22;1336;48.692;9.144;2022-11-25T07:31:03;6.30;97.20
2653;DHT22;1336;48.692;9.144;2022-11-25T07:31:54;6.30;97.20
2653;DHT22;1336;48.692;9.144;2022-11-25T07:32:46;6.30;97.20
2653;DHT22;1336;48.692;9.144;2022-11-25T07:33:38;6.40;97.20
2653;DHT22;1336;48.692;9.144;2022-11-25T07:34:30;6.40;97.20
2653;DHT22;1336;48.692;9.144;2022-11-25T07:35:21;6.40;97.20
2653;DHT22;1336;48.692;9.144;2022-11-25T07:36:13;6.40;97.20
2653;DHT22;1336;48.692;9.144;2022-11-25T07:37:05;6.40;97.20
2653;DHT22;1336;48.692;9.144;2022-11-25T07:37:57;6.40;97.20
2653;DHT22;1336;48.692;9.144;2022-11-25T07:38:48;6.40;97.20
2653;DHT22;1336;48.692;9.144;2022-11-25T07:39:39;6.40;97.20
2653;DHT22;1336;48.692;9.144;2022-11-25T07:40:30;6.50;97.20
2653;DHT22;1336;48.692;9.144;2022-11-25T07:41:24;6.50;97.20
2653;DHT22;1336;48.692;9.144;2022-11-25T07:42:14;6.50;97.20
2653;DHT22;1336;48.692;9.144;2022-11-25T07:43:06;6.50;97.20
2653;DHT22;1336;48.692;9.144;2022-11-25T07:43:59;6.60;97.20
2653;DHT22;1336;48.692;9.144;2022-11-25T07:44:51;6.60;97.20
2653;DHT22;1336;48.692;9.144;2022-11-25T07:45:42;6.60;97.20
2653;DHT22;1336;48.692;9.144;2022-11-25T07:46:35;6.60;97.20
2653;DHT22;1336;48.692;9.144;2022-11-25T07:47:27;6.70;97.20
2653;DHT22;1336;48.692;9.144;2022-11-25T07:48:18;6.70;97.20
2653;DHT22;1336;48.692;9.144;2022-11-25T07:49:13;6.70;97.20
2653;DHT22;1336;48.692;9.144;2022-11-25T07:50:05;6.70;97.20
2653;DHT22;1336;48.692;9.144;2022-11-25T07:50:57;6.70;97.20
2653;DHT22;1336;48.692;9.144;2022-11-25T07:51:49;6.80;97.20
2653;DHT22;1336;48.692;9.144;2022-11-25T07:52:43;6.80;97.20
2653;DHT22;1336;48.692;9.144;2022-11-25T07:53:34;6.80;97.20
2653;DHT22;1336;48.692;9.144;2022-11-25T07:54:25;6.80;97.20
2653;DHT22;1336;48.692;9.144;2022-11-25T07:55:17;6.80;97.20
2653;DHT22;1336;48.692;9.144;2022-11-25T07:56:08;6.80;97.20
2653;DHT22;1336;48.692;9.144;2022-11-25T07:57:00;6.80;97.20
2653;DHT22;1336;48.692;9.144;2022-11-25T07:57:51;6.80;97.20
2653;DHT22;1336;48.692;9.144;2022-11-25T07:58:43;6.90;97.20
2653;DHT22;1336;48.692;9.144;2022-11-25T07:59:34;6.90;97.20
2653;DHT22;1336;48.692;9.144;2022-11-25T08:00:30;6.90;97.20
2653;DHT22;1336;48.692;9.144;2022-11-25T08:01:21;6.90;97.20
2653;DHT22;1336;48.692;9.144;2022-11-25T08:02:13;6.90;97.20
2653;DHT22;1336;48.692;9.144;2022-11-25T08:03:04;7.00;97.20
2653;DHT22;1336;48.692;9.144;2022-11-25T08:03:56;7.00;97.20
2653;DHT22;1336;48.692;9.144;2022-11-25T08:04:50;7.00;97.20
2653;DHT22;1336;48.692;9.144;2022-11-25T08:05:40;6.90;97.20
2653;DHT22;1336;48.692;9.144;2022-11-25T08:06:37;6.90;97.20
2653;DHT22;1336;48.692;9.144;2022-11-25T08:07:28;6.90;97.20
2653;DHT22;1336;48.692;9.144;2022-11-25T08:08:20;6.90;97.20
2653;DHT22;1336;48.692;9.144;2022-11-25T08:09:12;6.90;97.20
2653;DHT22;1336;48.692;9.144;2022-11-25T08:10:05;7.00;97.20
2653;DHT22;1336;48.692;9.144;2022-11-25T08:10:56;7.00;97.20
2653;DHT22;1336;48.692;9.144;2022-11-25T08:11:48;6.90;97.20
2653;DHT22;1336;48.692;9.144;2022-11-25T08:12:40;6.90;97.20
2653;DHT22;1336;48.692;9.144;2022-11-25T08:13:31;7.00;97.20
2653;DHT22;1336;48.692;9.144;2022-11-25T08:14:23;7.00;97.20
2653;DHT22;1336;48.692;9.144;2022-11-25T08:15:15;6.90;97.20
2653;DHT22;1336;48.692;9.144;2022-11-25T08:16:07;7.00;97.20
2653;DHT22;1336;48.692;9.144;2022-11-25T08:16:58;7.00;97.20
2653;DHT22;1336;48.692;9.144;2022-11-25T08:17:50;7.00;97.20
2653;DHT22;1336;48.692;9.144;2022-11-25T08:18:42;7.00;97.20
2653;DHT22;1336;48.692;9.144;2022-11-25T08:19:34;7.00;97.20
2653;DHT22;1336;48.692;9.144;2022-11-25T08:20:27;7.00;97.20
2653;DHT22;1336;48.692;9.144;2022-11-25T08:21:20;7.00;97.20
2653;DHT22;1336;48.692;9.144;2022-11-25T08:22:11;7.10;97.20
2653;DHT22;1336;48.692;9.144;2022-11-25T08:23:03;7.10;97.20
2653;DHT22;1336;48.692;9.144;2022-11-25T08:23:54;7.10;97.20
2653;DHT22;1336;48.692;9.144;2022-11-25T08:24:46;7.10;97.20
2653;DHT22;1336;48.692;9.144;2022-11-25T08:25:38;7.10;97.20
2653;DHT22;1336;48.692;9.144;2022-11-25T08:26:32;7.10;97.20
2653;DHT22;1336;48.692;9.144;2022-11-25T08:27:25;7.10;97.20
2653;DHT22;1336;48.692;9.144;2022-11-25T08:28:15;7.10;97.20
2653;DHT22;1336;48.692;9.144;2022-11-25T08:29:09;7.10;97.20
2653;DHT22;1336;48.692;9.144;2022-11-25T08:30:02;7.10;97.20
2653;DHT22;1336;48.692;9.144;2022-11-25T08:31:00;7.10;97.20
2653;DHT22;1336;48.692;9.144;2022-11-25T08:31:52;7.10;97.20
2653;DHT22;1336;48.692;9.144;2022-11-25T08:32:43;7.10;97.20
2653;DHT22;1336;48.692;9.144;2022-11-25T08:33:34;7.10;97.20
2653;DHT22;1336;48.692;9.144;2022-11-25T08:34:26;7.10;97.20
2653;DHT22;1336;48.692;9.144;2022-11-25T08:35:18;7.20;97.20
2653;DHT22;1336;48.692;9.144;2022-11-25T08:36:11;7.20;97.20
2653;DHT22;1336;48.692;9.144;2022-11-25T08:37:03;7.20;97.20
2653;DHT22;1336;48.692;9.144;2022-11-25T08:37:55;7.20;97.20
2653;DHT22;1336;48.692;9.144;2022-11-25T08:38:47;7.30;97.20
2653;DHT22;1336;48.692;9.144;2022-11-25T08:39:39;7.30;97.20
2653;DHT22;1336;48.692;9.144;2022-11-25T08:40:29;7.30;97.20
2653;DHT22;1336;48.692;9.144;2022-11-25T08:41:24;7.30;97.20
2653;DHT22;1336;48.692;9.144;2022-11-25T08:42:15;7.40;97.20
2653;DHT22;1336;48.692;9.144;2022-11-25T08:43:06;7.40;97.20
2653;DHT22;1336;48.692;9.144;2022-11-25T08:43:59;7.40;97.20
2653;DHT22;1336;48.692;9.144;2022-11-25T08:44:51;7.50;97.20
2653;DHT22;1336;48.692;9.144;2022-11-25T08:45:44;7.50;97.20
2653;DHT22;1336;48.692;9.144;2022-11-25T08:46:36;7.50;97.20
2653;DHT22;1336;48.692;9.144;2022-11-25T08:47:28;7.50;97.20
2653;DHT22;1336;48.692;9.144;2022-11-25T08:48:20;7.60;97.20
2653;DHT22;1336;48.692;9.144;2022-11-25T08:49:12;7.60;97.20
2653;DHT22;1336;48.692;9.144;2022-11-25T08:50:08;7.60;97.20
2653;DHT22;1336;48.692;9.144;2022-11-25T08:50:59;7.70;97.20
2653;DHT22;1336;48.692;9.144;2022-11-25T08:51:52;7.70;97.20
2653;DHT22;1336;48.692;9.144;2022-11-25T08:52:43;7.70;97.20
2653;DHT22;1336;48.692;9.144;2022-11-25T08:53:36;7.70;97.20
2653;DHT22;1336;48.692;9.144;2022-11-25T08:54:26;7.70;97.20
2653;DHT22;1336;48.692;9.144;2022-11-25T08:55:18;7.70;97.20
2653;DHT22;1336;48.692;9.144;2022-11-25T08:56:09;7.80;97.20
2653;DHT22;1336;48.692;9.144;2022-11-25T08:57:01;7.80;97.20
2653;DHT22;1336;48.692;9.144;2022-11-25T08:57:52;7.90;97.20
2653;DHT22;1336;48.692;9.144;2022-11-25T08:58:44;7.90;97.20
2653;DHT22;1336;48.692;9.144;2022-11-25T08:59:35;7.90;97.20
2653;DHT22;1336;48.692;9.144;2022-11-25T09:00:28;8.00;97.20
2653;DHT22;1336;48.692;9.144;2022-11-25T09:01:19;8.00;97.20
2653;DHT22;1336;48.692;9.144;2022-11-25T09:02:14;8.10;97.20
2653;DHT22;1336;48.692;9.144;2022-11-25T09:03:06;8.20;97.20
2653;DHT22;1336;48.692;9.144;2022-11-25T09:03:58;8.20;97.20
2653;DHT22;1336;48.692;9.144;2022-11-25T09:04:50;8.30;97.20
2653;DHT22;1336;48.692;9.144;2022-11-25T09:05:42;8.40;97.20
2653;DHT22;1336;48.692;9.144;2022-11-25T09:06:34;8.40;97.20
2653;DHT22;1336;48.692;9.144;2022-11-25T09:07:27;8.50;97.20
2653;DHT22;1336;48.692;9.144;2022-11-25T09:08:19;8.60;97.20
2653;DHT22;1336;48.692;9.144;2022-11-25T09:09:10;8.70;97.20
2653;DHT22;1336;48.692;9.144;2022-11-25T09:10:03;8.80;97.20
2653;DHT22;1336;48.692;9.144;2022-11-25T09:10:54;8.90;97.20
2653;DHT22;1336;48.692;9.144;2022-11-25T09:11:46;9.00;97.20
2653;DHT22;1336;48.692;9.144;2022-11-25T09:12:36;9.10;97.20
2653;DHT22;1336;48.692;9.144;2022-11-25T09:13:28;9.30;97.20
2653;DHT22;1336;48.692;9.144;2022-11-25T09:14:19;9.40;97.20
2653;DHT22;1336;48.692;9.144;2022-11-25T09:15:11;9.50;97.20
2653;DHT22;1336;48.692;9.144;2022-11-25T09:16:02;9.50;97.20
2653;DHT22;1336;48.692;9.144;2022-11-25T09:16:54;9.60;97.20
2653;DHT22;1336;48.692;9.144;2022-11-25T09:17:46;9.60;97.20
2653;DHT22;1336;48.692;9.144;2022-11-25T09:18:38;9.60;97.20
2653;DHT22;1336;48.692;9.144;2022-11-25T09:19:29;9.60;97.20
2653;DHT22;1336;48.692;9.144;2022-11-25T09:20:20;9.60;97.20
2653;DHT22;1336;48.692;9.144;2022-11-25T09:21:14;9.60;97.20
2653;DHT22;1336;48.692;9.144;2022-11-25T09:22:06;9.60;97.20
2653;DHT22;1336;48.692;9.144;2022-11-25T09:23:00;9.60;97.20
2653;DHT22;1336;48.692;9.144;2022-11-25T09:23:52;9.50;97.20
2653;DHT22;1336;48.692;9.144;2022-11-25T09:24:44;9.50;97.20
2653;DHT22;1336;48.692;9.144;2022-11-25T09:25:35;9.50;97.20
2653;DHT22;1336;48.692;9.144;2022-11-25T09:26:29;9.50;97.20
2653;DHT22;1336;48.692;9.144;2022-11-25T09:27:20;9.50;97.20
2653;DHT22;1336;48.692;9.144;2022-11-25T09:28:12;9.50;97.20
2653;DHT22;1336;48.692;9.144;2022-11-25T09:29:02;9.50;97.20
2653;DHT22;1336;48.692;9.144;2022-11-25T09:29:54;9.50;97.20
2653;DHT22;1336;48.692;9.144;2022-11-25T09:30:45;9.50;97.20
2653;DHT22;1336;48.692;9.144;2022-11-25T09:31:37;9.50;97.20
2653;DHT22;1336;48.692;9.144;2022-11-25T09:32:29;9.40;97.20
2653;DHT22;1336;48.692;9.144;2022-11-25T09:33:20;9.40;97.20
2653;DHT22;1336;48.692;9.144;2022-11-25T09:34:12;9.40;97.20
2653;DHT22;1336;48.692;9.144;2022-11-25T09:35:03;9.40;97.20
2653;DHT22;1336;48.692;9.144;2022-11-25T09:35:59;9.40;97.20
2653;DHT22;1336;48.692;9.144;2022-11-25T09:36:50;9.40;97.20
2653;DHT22;1336;48.692;9.144;2022-11-25T09:37:41;9.40;97.20
2653;DHT22;1336;48.692;9.144;2022-11-25T09:38:34;9.40;97.20
2653;DHT22;1336;48.692;9.144;2022-11-25T09:39:26;9.40;97.20
2653;DHT22;1336;48.692;9.144;2022-11-25T09:40:39;9.40;97.20
2653;DHT22;1336;48.692;9.144;2022-11-25T09:41:53;9.40;97.20
2653;DHT22;1336;48.692;9.144;2022-11-25T09:43:10;9.40;97.20
2653;DHT22;1336;48.692;9.144;2022-11-25T09:44:41;9.40;97.20
2653;DHT22;1336;48.692;9.144;2022-11-25T09:46:01;9.30;97.20
2653;DHT22;1336;48.692;9.144;2022-11-25T09:47:19;9.30;97.20
2653;DHT22;1336;48.692;9.144;2022-11-25T09:48:25;9.30;97.20
2653;DHT22;1336;48.692;9.144;2022-11-25T09:49:29;9.20;97.20
2653;DHT22;1336;48.692;9.144;2022-11-25T09:50:40;9.20;97.20
2653;DHT22;1336;48.692;9.144;2022-11-25T09:51:38;9.20;97.20
2653;DHT22;1336;48.692;9.144;2022-11-25T09:52:37;9.20;97.20
2653;DHT22;1336;48.692;9.144;2022-11-25T09:53:41;9.20;97.20
2653;DHT22;1336;48.692;9.144;2022-11-25T09:54:36;9.20;97.20
2653;DHT22;1336;48.692;9.144;2022-11-25T09:55:30;9.20;97.20
2653;DHT22;1336;48.692;9.144;2022-11-25T09:56:29;9.20;97.20
2653;DHT22;1336;48.692;9.144;2022-11-25T09:57:26;9.30;97.20
2653;DHT22;1336;48.692;9.144;2022-11-25T09:58:27;9.30;97.20
2653;DHT22;1336;48.692;9.144;2022-11-25T09:59:21;9.30;97.20
2653;DHT22;1336;48.692;9.144;2022-11-25T10:00:17;9.30;97.20
2653;DHT22;1336;48.692;9.144;2022-11-25T10:01:14;9.30;97.20
2653;DHT22;1336;48.692;9.144;2022-11-25T10:02:13;9.30;97.20
2653;DHT22;1336;48.692;9.144;2022-11-25T10:03:14;9.30;97.20
2653;DHT22;1336;48.692;9.144;2022-11-25T10:04:12;9.40;97.20
2653;DHT22;1336;48.692;9.144;2022-11-25T10:05:13;9.40;97.20
2653;DHT22;1336;48.692;9.144;2022-11-25T10:06:09;9.40;97.20
2653;DHT22;1336;48.692;9.144;2022-11-25T10:07:03;9.40;97.20
2653;DHT22;1336;48.692;9.144;2022-11-25T10:08:02;9.40;97.20
2653;DHT22;1336;48.692;9.144;2022-11-25T10:09:01;9.40;97.20
2653;DHT22;1336;48.692;9.144;2022-11-25T10:09:55;9.40;97.20
2653;DHT22;1336;48.692;9.144;2022-11-25T10:10:50;9.40;97.20
2653;DHT22;1336;48.692;9.144;2022-11-25T10:11:48;9.40;97.20
2653;DHT22;1336;48.692;9.144;2022-11-25T10:12:43;9.40;97.20
2653;DHT22;1336;48.692;9.144;2022-11-25T10:13:43;9.40;97.20
2653;DHT22;1336;48.692;9.144;2022-11-25T10:14:39;9.40;97.20
2653;DHT22;1336;48.692;9.144;2022-11-25T10:15:36;9.50;97.20
2653;DHT22;1336;48.692;9.144;2022-11-25T10:16:34;9.50;97.20
2653;DHT22;1336;48.692;9.144;2022-11-25T10:17:34;9.60;97.20
2653;DHT22;1336;48.692;9.144;2022-11-25T10:18:31;9.70;97.20
2653;DHT22;1336;48.692;9.144;2022-11-25T10:19:32;9.80;97.20
2653;DHT22;1336;48.692;9.144;2022-11-25T10:20:29;9.90;97.20
2653;DHT22;1336;48.692;9.144;2022-11-25T10:21:20;10.00;97.20
2653;DHT22;1336;48.692;9.144;2022-11-25T10:22:19;10.10;97.20
2653;DHT22;1336;48.692;9.144;2022-11-25T10:23:17;10.30;97.20
2653;DHT22;1336;48.692;9.144;2022-11-25T10:24:14;10.40;97.20
2653;DHT22;1336;48.692;9.144;2022-11-25T10:25:13;10.60;97.20
2653;DHT22;1336;48.692;9.144;2022-11-25T10:26:12;10.80;97.20
2653;DHT22;1336;48.692;9.144;2022-11-25T10:27:06;11.00;97.20
2653;DHT22;1336;48.692;9.144;2022-11-25T10:28:03;11.20;97.20
2653;DHT22;1336;48.692;9.144;2022-11-25T10:29:18;11.40;97.20
2653;DHT22;1336;48.692;9.144;2022-11-25T10:30:16;11.60;97.20
2653;DHT22;1336;48.692;9.144;2022-11-25T10:31:12;11.80;97.20
2653;DHT22;1336;48.692;9.144;2022-11-25T10:32:19;11.90;97.20
2653;DHT22;1336;48.692;9.144;2022-11-25T10:33:14;12.00;97.20
2653;DHT22;1336;48.692;9.144;2022-11-25T10:34:13;12.00;97.20
2653;DHT22;1336;48.692;9.144;2022-11-25T10:35:13;12.00;97.20
2653;DHT22;1336;48.692;9.144;2022-11-25T10:36:13;12.00;97.20
2653;DHT22;1336;48.692;9.144;2022-11-25T10:37:10;12.00;97.20
2653;DHT22;1336;48.692;9.144;2022-11-25T10:38:06;12.00;97.20
2653;DHT22;1336;48.692;9.144;2022-11-25T10:38:59;12.00;97.20
2653;DHT22;1336;48.692;9.144;2022-11-25T10:39:52;12.00;97.20
2653;DHT22;1336;48.692;9.144;2022-11-25T10:40:46;11.90;97.20
2653;DHT22;1336;48.692;9.144;2022-11-25T10:41:47;11.90;97.20
2653;DHT22;1336;48.692;9.144;2022-11-25T10:42:41;11.90;97.20
2653;DHT22;1336;48.692;9.144;2022-11-25T10:43:32;11.90;97.20
2653;DHT22;1336;48.692;9.144;2022-11-25T10:44:26;11.90;97.20
2653;DHT22;1336;48.692;9.144;2022-11-25T10:45:19;11.80;97.20
2653;DHT22;1336;48.692;9.144;2022-11-25T10:46:19;11.80;97.20
2653;DHT22;1336;48.692;9.144;2022-11-25T10:47:27;11.80;97.20
2653;DHT22;1336;48.692;9.144;2022-11-25T10:48:41;11.70;97.20
2653;DHT22;1336;48.692;9.144;2022-11-25T10:49:44;11.60;97.20
2653;DHT22;1336;48.692;9.144;2022-11-25T10:50:43;11.50;97.20
2653;DHT22;1336;48.692;9.144;2022-11-25T10:51:44;11.50;97.20
2653;DHT22;1336;48.692;9.144;2022-11-25T10:52:39;11.40;97.20
2653;DHT22;1336;48.692;9.144;2022-11-25T10:53:30;11.40;97.20
2653;DHT22;1336;48.692;9.144;2022-11-25T10:54:23;11.30;97.20
2653;DHT22;1336;48.692;9.144;2022-11-25T10:55:17;11.30;97.20
2653;DHT22;1336;48.692;9.144;2022-11-25T10:56:15;11.20;97.20
2653;DHT22;1336;48.692;9.144;2022-11-25T10:57:17;11.20;97.20
2653;DHT22;1336;48.692;9.144;2022-11-25T10:58:24;11.20;97.20
2653;DHT22;1336;48.692;9.144;2022-11-25T10:59:25;11.10;97.20
2653;DHT22;1336;48.692;9.144;2022-11-25T11:00:26;11.10;97.20
2653;DHT22;1336;48.692;9.144;2022-11-25T11:01:21;11.00;97.20
2653;DHT22;1336;48.692;9.144;2022-11-25T11:02:20;11.00;97.20
2653;DHT22;1336;48.692;9.144;2022-11-25T11:03:18;11.00;97.20
2653;DHT22;1336;48.692;9.144;2022-11-25T11:04:12;10.90;97.20
2653;DHT22;1336;48.692;9.144;2022-11-25T11:05:17;10.90;97.20
2653;DHT22;1336;48.692;9.144;2022-11-25T11:06:28;10.90;97.20
2653;DHT22;1336;48.692;9.144;2022-11-25T11:07:21;10.90;97.20
2653;DHT22;1336;48.692;9.144;2022-11-25T11:08:17;10.80;97.20
2653;DHT22;1336;48.692;9.144;2022-11-25T11:09:34;10.80;97.20
2653;DHT22;1336;48.692;9.144;2022-11-25T11:10:27;10.80;97.20
2653;DHT22;1336;48.692;9.144;2022-11-25T11:11:20;10.70;97.20
2653;DHT22;1336;48.692;9.144;2022-11-25T11:12:17;10.70;97.20
2653;DHT22;1336;48.692;9.144;2022-11-25T11:13:20;10.70;97.20
2653;DHT22;1336;48.692;9.144;2022-11-25T11:14:13;10.70;97.20
2653;DHT22;1336;48.692;9.144;2022-11-25T11:15:14;10.60;97.20
2653;DHT22;1336;48.692;9.144;2022-11-25T11:16:22;10.60;97.20
2653;DHT22;1336;48.692;9.144;2022-11-25T11:17:28;10.50;97.20
2653;DHT22;1336;48.692;9.144;2022-11-25T11:18:23;10.50;97.20
2653;DHT22;1336;48.692;9.144;2022-11-25T11:19:23;10.50;97.20
2653;DHT22;1336;48.692;9.144;2022-11-25T11:20:18;10.50;97.20
2653;DHT22;1336;48.692;9.144;2022-11-25T11:21:21;10.50;97.20
2653;DHT22;1336;48.692;9.144;2022-11-25T11:22:16;10.50;97.20
2653;DHT22;1336;48.692;9.144;2022-11-25T11:23:09;10.50;97.20
2653;DHT22;1336;48.692;9.144;2022-11-25T11:24:22;10.50;97.20
2653;DHT22;1336;48.692;9.144;2022-11-25T11:25:31;10.40;97.20
2653;DHT22;1336;48.692;9.144;2022-11-25T11:26:24;10.50;97.20
2653;DHT22;1336;48.692;9.144;2022-11-25T11:27:20;10.40;97.20
2653;DHT22;1336;48.692;9.144;2022-11-25T11:28:27;10.40;97.20
2653;DHT22;1336;48.692;9.144;2022-11-25T11:29:20;10.40;97.20
2653;DHT22;1336;48.692;9.144;2022-11-25T11:30:14;10.40;97.20
2653;DHT22;1336;48.692;9.144;2022-11-25T11:31:15;10.40;97.20
2653;DHT22;1336;48.692;9.144;2022-11-25T11:32:19;10.40;97.20
2653;DHT22;1336;48.692;9.144;2022-11-25T11:33:28;10.40;97.20
2653;DHT22;1336;48.692;9.144;2022-11-25T11:34:33;10.40;97.20
2653;DHT22;1336;48.692;9.144;2022-11-25T11:35:40;10.40;97.20
2653;DHT22;1336;48.692;9.144;2022-11-25T11:36:52;10.40;97.20
2653;DHT22;1336;48.692;9.144;2022-11-25T11:37:50;10.30;97.20
2653;DHT22;1336;48.692;9.144;2022-11-25T11:38:49;10.40;97.20
2653;DHT22;1336;48.692;9.144;2022-11-25T11:40:02;10.30;97.20
2653;DHT22;1336;48.692;9.144;2022-11-25T11:41:13;10.30;97.20
2653;DHT22;1336;48.692;9.144;2022-11-25T11:42:15;10.40;97.20
2653;DHT22;1336;48.692;9.144;2022-11-25T11:43:24;10.40;97.20
2653;DHT22;1336;48.692;9.144;2022-11-25T11:44:26;10.40;97.20
2653;DHT22;1336;48.692;9.144;2022-11-25T11:45:33;10.30;97.20
2653;DHT22;1336;48.692;9.144;2022-11-25T11:46:32;10.30;97.20
2653;DHT22;1336;48.692;9.144;2022-11-25T11:47:34;10.30;97.20
2653;DHT22;1336;48.692;9.144;2022-11-25T11:48:37;10.30;97.20
2653;DHT22;1336;48.692;9.144;2022-11-25T11:49:43;10.20;97.20
2653;DHT22;1336;48.692;9.144;2022-11-25T11:50:39;10.20;97.20
2653;DHT22;1336;48.692;9.144;2022-11-25T11:51:38;10.20;97.20
2653;DHT22;1336;48.692;9.144;2022-11-25T11:52:44;10.20;97.20
2653;DHT22;1336;48.692;9.144;2022-11-25T11:53:45;10.20;97.20
2653;DHT22;1336;48.692;9.144;2022-11-25T11:54:43;10.20;97.20
2653;DHT22;1336;48.692;9.144;2022-11-25T11:55:51;10.20;97.20
2653;DHT22;1336;48.692;9.144;2022-11-25T11:56:50;10.20;97.20
2653;DHT22;1336;48.692;9.144;2022-11-25T11:57:48;10.20;97.20
2653;DHT22;1336;48.692;9.144;2022-11-25T11:58:54;10.20;97.20
2653;DHT22;1336;48.692;9.144;2022-11-25T11:59:53;10.10;97.20
2653;DHT22;1336;48.692;9.144;2022-11-25T12:00:49;10.20;97.20
2653;DHT22;1336;48.692;9.144;2022-11-25T12:01:52;10.10;97.20
2653;DHT22;1336;48.692;9.144;2022-11-25T12:02:58;10.10;97.20
2653;DHT22;1336;48.692;9.144;2022-11-25T12:03:56;10.10;97.20